sensor_id;sensor_type;location;lat;lon;timestamp;P1;durP1;ratioP1;P2;durP2;ratioP2
23737;SDS011;12049;51.068;3.688;2022-12-08T00:01:57;14.25;;;8.80;;
23737;SDS011;12049;51.068;3.688;2022-12-08T00:04:23;13.60;;;8.85;;
23737;SDS011;12049;51.068;3.688;2022-12-08T00:06:48;14.25;;;8.75;;
23737;SDS011;12049;51.068;3.688;2022-12-08T00:09:34;14.32;;;9.07;;
23737;SDS011;12049;51.068;3.688;2022-12-08T00:12:08;14.45;;;9.45;;
23737;SDS011;12049;51.068;3.688;2022-12-08T00:14:37;12.55;;;9.90;;
23737;SDS011;12049;51.068;3.688;2022-12-08T00:17:05;19.75;;;10.60;;
23737;SDS011;12049;51.068;3.688;2022-12-08T00:19:32;15.55;;;9.98;;
23737;SDS011;12049;51.068;3.688;2022-12-08T00:21:57;12.25;;;9.75;;
23737;SDS011;12049;51.068;3.688;2022-12-08T00:24:28;14.43;;;9.40;;
23737;SDS011;12049;51.068;3.688;2022-12-08T00:26:55;15.98;;;10.30;;
23737;SDS011;12049;51.068;3.688;2022-12-08T00:29:21;14.95;;;10.18;;
23737;SDS011;12049;51.068;3.688;2022-12-08T00:31:47;13.63;;;9.95;;
23737;SDS011;12049;51.068;3.688;2022-12-08T00:34:13;12.88;;;10.25;;
23737;SDS011;12049;51.068;3.688;2022-12-08T00:36:39;15.10;;;9.82;;
23737;SDS011;12049;51.068;3.688;2022-12-08T00:39:05;16.42;;;10.23;;
23737;SDS011;12049;51.068;3.688;2022-12-08T00:41:31;18.40;;;10.00;;
23737;SDS011;12049;51.068;3.688;2022-12-08T00:44:15;13.82;;;9.93;;
23737;SDS011;12049;51.068;3.688;2022-12-08T00:46:45;18.38;;;11.13;;
23737;SDS011;12049;51.068;3.688;2022-12-08T00:49:11;16.40;;;10.48;;
23737;SDS011;12049;51.068;3.688;2022-12-08T00:51:37;15.43;;;10.20;;
23737;SDS011;12049;51.068;3.688;2022-12-08T00:54:03;13.43;;;10.73;;
23737;SDS011;12049;51.068;3.688;2022-12-08T00:56:29;16.90;;;10.40;;
23737;SDS011;12049;51.068;3.688;2022-12-08T00:58:55;16.73;;;11.23;;
23737;SDS011;12049;51.068;3.688;2022-12-08T01:01:21;17.65;;;10.70;;
23737;SDS011;12049;51.068;3.688;2022-12-08T01:03:47;15.95;;;11.00;;
23737;SDS011;12049;51.068;3.688;2022-12-08T01:06:13;17.08;;;10.40;;
23737;SDS011;12049;51.068;3.688;2022-12-08T01:08:39;22.17;;;10.38;;
23737;SDS011;12049;51.068;3.688;2022-12-08T01:11:05;13.60;;;10.05;;
23737;SDS011;12049;51.068;3.688;2022-12-08T01:13:33;19.13;;;11.23;;
23737;SDS011;12049;51.068;3.688;2022-12-08T01:15:59;17.38;;;11.20;;
23737;SDS011;12049;51.068;3.688;2022-12-08T01:18:25;20.15;;;11.35;;
23737;SDS011;12049;51.068;3.688;2022-12-08T01:20:51;16.20;;;11.27;;
23737;SDS011;12049;51.068;3.688;2022-12-08T01:23:17;22.20;;;11.30;;
23737;SDS011;12049;51.068;3.688;2022-12-08T01:25:43;17.90;;;11.60;;
23737;SDS011;12049;51.068;3.688;2022-12-08T01:28:09;19.20;;;11.07;;
23737;SDS011;12049;51.068;3.688;2022-12-08T01:30:36;19.73;;;11.77;;
23737;SDS011;12049;51.068;3.688;2022-12-08T01:33:03;16.70;;;11.40;;
23737;SDS011;12049;51.068;3.688;2022-12-08T01:35:28;16.35;;;11.13;;
23737;SDS011;12049;51.068;3.688;2022-12-08T01:37:54;16.83;;;11.98;;
23737;SDS011;12049;51.068;3.688;2022-12-08T01:40:20;17.15;;;11.35;;
23737;SDS011;12049;51.068;3.688;2022-12-08T01:42:45;18.90;;;11.02;;
23737;SDS011;12049;51.068;3.688;2022-12-08T01:45:24;15.95;;;10.73;;
23737;SDS011;12049;51.068;3.688;2022-12-08T01:47:54;16.25;;;10.65;;
23737;SDS011;12049;51.068;3.688;2022-12-08T01:50:28;16.40;;;11.23;;
23737;SDS011;12049;51.068;3.688;2022-12-08T01:52:56;15.50;;;10.20;;
23737;SDS011;12049;51.068;3.688;2022-12-08T01:56:00;15.77;;;11.57;;
23737;SDS011;12049;51.068;3.688;2022-12-08T02:00:51;15.57;;;10.57;;
23737;SDS011;12049;51.068;3.688;2022-12-08T02:03:20;17.60;;;10.35;;
23737;SDS011;12049;51.068;3.688;2022-12-08T02:06:07;15.23;;;10.95;;
23737;SDS011;12049;51.068;3.688;2022-12-08T02:08:33;15.80;;;10.38;;
23737;SDS011;12049;51.068;3.688;2022-12-08T02:11:01;13.40;;;10.30;;
23737;SDS011;12049;51.068;3.688;2022-12-08T02:13:30;13.38;;;9.48;;
23737;SDS011;12049;51.068;3.688;2022-12-08T02:21:18;13.63;;;10.23;;
23737;SDS011;12049;51.068;3.688;2022-12-08T02:28:56;15.85;;;9.30;;
23737;SDS011;12049;51.068;3.688;2022-12-08T02:31:47;12.80;;;8.65;;
23737;SDS011;12049;51.068;3.688;2022-12-08T02:37:30;15.73;;;8.98;;
23737;SDS011;12049;51.068;3.688;2022-12-08T02:40:06;18.05;;;9.32;;
23737;SDS011;12049;51.068;3.688;2022-12-08T02:42:56;14.93;;;9.13;;
23737;SDS011;12049;51.068;3.688;2022-12-08T02:45:33;15.73;;;8.45;;
23737;SDS011;12049;51.068;3.688;2022-12-08T02:48:08;16.60;;;8.93;;
23737;SDS011;12049;51.068;3.688;2022-12-08T02:50:34;18.15;;;8.38;;
23737;SDS011;12049;51.068;3.688;2022-12-08T02:53:00;19.02;;;8.43;;
23737;SDS011;12049;51.068;3.688;2022-12-08T03:00:56;14.02;;;6.93;;
23737;SDS011;12049;51.068;3.688;2022-12-08T03:06:13;11.18;;;5.20;;
23737;SDS011;12049;51.068;3.688;2022-12-08T03:11:39;9.60;;;3.80;;
23737;SDS011;12049;51.068;3.688;2022-12-08T03:14:32;5.60;;;3.03;;
23737;SDS011;12049;51.068;3.688;2022-12-08T03:16:59;4.55;;;2.72;;
23737;SDS011;12049;51.068;3.688;2022-12-08T03:19:31;5.10;;;3.20;;
23737;SDS011;12049;51.068;3.688;2022-12-08T03:22:00;4.75;;;3.38;;
23737;SDS011;12049;51.068;3.688;2022-12-08T03:24:30;8.13;;;4.22;;
23737;SDS011;12049;51.068;3.688;2022-12-08T03:27:25;8.98;;;5.38;;
23737;SDS011;12049;51.068;3.688;2022-12-08T03:29:53;8.50;;;5.13;;
23737;SDS011;12049;51.068;3.688;2022-12-08T03:35:04;7.78;;;4.88;;
23737;SDS011;12049;51.068;3.688;2022-12-08T03:37:34;9.45;;;6.10;;
23737;SDS011;12049;51.068;3.688;2022-12-08T03:40:00;10.95;;;6.30;;
23737;SDS011;12049;51.068;3.688;2022-12-08T03:42:27;12.70;;;7.13;;
23737;SDS011;12049;51.068;3.688;2022-12-08T03:44:52;13.75;;;7.25;;
23737;SDS011;12049;51.068;3.688;2022-12-08T03:47:18;8.27;;;6.30;;
23737;SDS011;12049;51.068;3.688;2022-12-08T03:49:43;11.82;;;7.82;;
23737;SDS011;12049;51.068;3.688;2022-12-08T03:52:09;13.40;;;7.43;;
23737;SDS011;12049;51.068;3.688;2022-12-08T03:54:35;13.15;;;7.63;;
23737;SDS011;12049;51.068;3.688;2022-12-08T03:57:00;11.02;;;7.88;;
23737;SDS011;12049;51.068;3.688;2022-12-08T03:59:26;16.80;;;8.25;;
23737;SDS011;12049;51.068;3.688;2022-12-08T04:01:51;12.70;;;8.30;;
23737;SDS011;12049;51.068;3.688;2022-12-08T04:04:17;14.55;;;8.27;;
23737;SDS011;12049;51.068;3.688;2022-12-08T04:06:43;13.35;;;7.80;;
23737;SDS011;12049;51.068;3.688;2022-12-08T04:09:08;13.20;;;8.20;;
23737;SDS011;12049;51.068;3.688;2022-12-08T04:11:34;12.00;;;7.38;;
23737;SDS011;12049;51.068;3.688;2022-12-08T04:14:01;13.27;;;7.72;;
23737;SDS011;12049;51.068;3.688;2022-12-08T04:16:26;12.27;;;7.45;;
23737;SDS011;12049;51.068;3.688;2022-12-08T04:18:52;13.60;;;7.65;;
23737;SDS011;12049;51.068;3.688;2022-12-08T04:21:19;15.93;;;7.72;;
23737;SDS011;12049;51.068;3.688;2022-12-08T04:23:44;10.65;;;7.05;;
23737;SDS011;12049;51.068;3.688;2022-12-08T04:26:11;13.32;;;8.07;;
23737;SDS011;12049;51.068;3.688;2022-12-08T04:28:37;13.43;;;7.47;;
23737;SDS011;12049;51.068;3.688;2022-12-08T04:31:03;9.43;;;6.57;;
23737;SDS011;12049;51.068;3.688;2022-12-08T04:33:29;10.95;;;6.88;;
23737;SDS011;12049;51.068;3.688;2022-12-08T04:35:55;12.18;;;7.47;;
23737;SDS011;12049;51.068;3.688;2022-12-08T04:38:21;14.13;;;7.80;;
23737;SDS011;12049;51.068;3.688;2022-12-08T04:40:47;13.45;;;8.23;;
23737;SDS011;12049;51.068;3.688;2022-12-08T04:43:12;14.90;;;8.18;;
23737;SDS011;12049;51.068;3.688;2022-12-08T04:45:38;13.95;;;8.27;;
23737;SDS011;12049;51.068;3.688;2022-12-08T04:48:05;14.80;;;9.52;;
23737;SDS011;12049;51.068;3.688;2022-12-08T04:50:31;15.10;;;9.50;;
23737;SDS011;12049;51.068;3.688;2022-12-08T04:52:56;15.98;;;9.43;;
23737;SDS011;12049;51.068;3.688;2022-12-08T04:55:22;17.02;;;9.65;;
23737;SDS011;12049;51.068;3.688;2022-12-08T04:57:48;16.88;;;9.77;;
23737;SDS011;12049;51.068;3.688;2022-12-08T05:00:14;17.42;;;10.30;;
23737;SDS011;12049;51.068;3.688;2022-12-08T05:02:40;18.77;;;9.75;;
23737;SDS011;12049;51.068;3.688;2022-12-08T05:05:05;15.85;;;9.75;;
23737;SDS011;12049;51.068;3.688;2022-12-08T05:07:31;12.43;;;9.35;;
23737;SDS011;12049;51.068;3.688;2022-12-08T05:09:57;16.45;;;9.93;;
23737;SDS011;12049;51.068;3.688;2022-12-08T05:12:23;15.38;;;8.75;;
23737;SDS011;12049;51.068;3.688;2022-12-08T05:14:49;13.88;;;8.45;;
23737;SDS011;12049;51.068;3.688;2022-12-08T05:17:15;13.43;;;9.20;;
23737;SDS011;12049;51.068;3.688;2022-12-08T05:19:42;17.17;;;9.75;;
23737;SDS011;12049;51.068;3.688;2022-12-08T05:22:08;17.67;;;9.95;;
23737;SDS011;12049;51.068;3.688;2022-12-08T05:24:33;16.17;;;9.60;;
23737;SDS011;12049;51.068;3.688;2022-12-08T05:26:59;15.50;;;9.70;;
23737;SDS011;12049;51.068;3.688;2022-12-08T05:29:25;22.30;;;9.77;;
23737;SDS011;12049;51.068;3.688;2022-12-08T05:31:50;15.63;;;9.82;;
23737;SDS011;12049;51.068;3.688;2022-12-08T05:34:16;17.17;;;9.55;;
23737;SDS011;12049;51.068;3.688;2022-12-08T05:36:42;15.38;;;10.25;;
23737;SDS011;12049;51.068;3.688;2022-12-08T05:39:08;16.23;;;10.15;;
23737;SDS011;12049;51.068;3.688;2022-12-08T05:41:36;17.13;;;10.45;;
23737;SDS011;12049;51.068;3.688;2022-12-08T05:44:02;17.02;;;10.70;;
23737;SDS011;12049;51.068;3.688;2022-12-08T05:46:28;18.27;;;11.00;;
23737;SDS011;12049;51.068;3.688;2022-12-08T05:48:53;16.35;;;9.75;;
23737;SDS011;12049;51.068;3.688;2022-12-08T05:51:20;17.75;;;10.68;;
23737;SDS011;12049;51.068;3.688;2022-12-08T05:53:47;13.93;;;10.30;;
23737;SDS011;12049;51.068;3.688;2022-12-08T05:56:14;21.52;;;10.88;;
23737;SDS011;12049;51.068;3.688;2022-12-08T05:58:41;16.52;;;10.32;;
23737;SDS011;12049;51.068;3.688;2022-12-08T06:01:06;15.57;;;10.02;;
23737;SDS011;12049;51.068;3.688;2022-12-08T06:03:41;16.25;;;9.90;;
23737;SDS011;12049;51.068;3.688;2022-12-08T06:06:07;15.60;;;9.90;;
23737;SDS011;12049;51.068;3.688;2022-12-08T06:08:33;16.95;;;10.30;;
23737;SDS011;12049;51.068;3.688;2022-12-08T06:10:58;15.15;;;9.60;;
23737;SDS011;12049;51.068;3.688;2022-12-08T06:13:24;14.05;;;9.00;;
23737;SDS011;12049;51.068;3.688;2022-12-08T06:15:49;14.60;;;9.43;;
23737;SDS011;12049;51.068;3.688;2022-12-08T06:18:15;13.98;;;9.50;;
23737;SDS011;12049;51.068;3.688;2022-12-08T06:20:41;16.63;;;10.00;;
23737;SDS011;12049;51.068;3.688;2022-12-08T06:23:06;18.20;;;9.55;;
23737;SDS011;12049;51.068;3.688;2022-12-08T06:25:32;13.65;;;8.63;;
23737;SDS011;12049;51.068;3.688;2022-12-08T06:27:57;16.25;;;9.60;;
23737;SDS011;12049;51.068;3.688;2022-12-08T06:30:23;14.95;;;9.55;;
23737;SDS011;12049;51.068;3.688;2022-12-08T06:32:49;16.80;;;9.73;;
23737;SDS011;12049;51.068;3.688;2022-12-08T06:35:14;17.02;;;9.18;;
23737;SDS011;12049;51.068;3.688;2022-12-08T06:37:40;14.23;;;8.52;;
23737;SDS011;12049;51.068;3.688;2022-12-08T06:40:06;14.38;;;9.15;;
23737;SDS011;12049;51.068;3.688;2022-12-08T06:42:32;13.88;;;8.85;;
23737;SDS011;12049;51.068;3.688;2022-12-08T06:45:14;13.23;;;9.05;;
23737;SDS011;12049;51.068;3.688;2022-12-08T06:47:41;12.77;;;9.07;;
23737;SDS011;12049;51.068;3.688;2022-12-08T06:50:07;13.80;;;8.85;;
23737;SDS011;12049;51.068;3.688;2022-12-08T06:52:33;12.45;;;8.50;;
23737;SDS011;12049;51.068;3.688;2022-12-08T06:54:59;12.82;;;8.45;;
23737;SDS011;12049;51.068;3.688;2022-12-08T06:57:24;16.27;;;8.80;;
23737;SDS011;12049;51.068;3.688;2022-12-08T06:59:50;13.85;;;8.32;;
23737;SDS011;12049;51.068;3.688;2022-12-08T07:02:16;15.50;;;8.20;;
23737;SDS011;12049;51.068;3.688;2022-12-08T07:04:41;11.95;;;8.75;;
23737;SDS011;12049;51.068;3.688;2022-12-08T07:07:07;18.40;;;8.68;;
23737;SDS011;12049;51.068;3.688;2022-12-08T07:09:33;16.05;;;8.52;;
23737;SDS011;12049;51.068;3.688;2022-12-08T07:11:59;12.20;;;8.55;;
23737;SDS011;12049;51.068;3.688;2022-12-08T07:14:24;14.35;;;8.00;;
23737;SDS011;12049;51.068;3.688;2022-12-08T07:16:50;13.90;;;7.40;;
23737;SDS011;12049;51.068;3.688;2022-12-08T07:19:17;15.10;;;7.40;;
23737;SDS011;12049;51.068;3.688;2022-12-08T07:21:43;11.35;;;6.53;;
23737;SDS011;12049;51.068;3.688;2022-12-08T07:24:08;10.88;;;6.05;;
23737;SDS011;12049;51.068;3.688;2022-12-08T07:26:35;11.02;;;5.07;;
23737;SDS011;12049;51.068;3.688;2022-12-08T07:29:01;9.65;;;4.95;;
23737;SDS011;12049;51.068;3.688;2022-12-08T07:31:26;7.90;;;4.20;;
23737;SDS011;12049;51.068;3.688;2022-12-08T07:33:53;8.98;;;4.32;;
23737;SDS011;12049;51.068;3.688;2022-12-08T07:36:20;7.40;;;3.83;;
23737;SDS011;12049;51.068;3.688;2022-12-08T07:38:46;7.38;;;3.67;;
23737;SDS011;12049;51.068;3.688;2022-12-08T07:41:12;9.60;;;3.25;;
23737;SDS011;12049;51.068;3.688;2022-12-08T07:43:39;4.90;;;2.88;;
23737;SDS011;12049;51.068;3.688;2022-12-08T07:46:05;4.13;;;2.55;;
23737;SDS011;12049;51.068;3.688;2022-12-08T07:48:30;3.75;;;2.58;;
23737;SDS011;12049;51.068;3.688;2022-12-08T07:51:00;8.05;;;2.50;;
23737;SDS011;12049;51.068;3.688;2022-12-08T07:53:26;4.75;;;2.63;;
23737;SDS011;12049;51.068;3.688;2022-12-08T07:55:51;7.20;;;2.35;;
23737;SDS011;12049;51.068;3.688;2022-12-08T07:58:17;4.57;;;2.10;;
23737;SDS011;12049;51.068;3.688;2022-12-08T08:00:43;7.18;;;2.30;;
23737;SDS011;12049;51.068;3.688;2022-12-08T08:03:09;5.07;;;2.50;;
23737;SDS011;12049;51.068;3.688;2022-12-08T08:05:35;3.47;;;2.30;;
23737;SDS011;12049;51.068;3.688;2022-12-08T08:08:01;5.28;;;2.53;;
23737;SDS011;12049;51.068;3.688;2022-12-08T08:10:26;3.75;;;2.25;;
23737;SDS011;12049;51.068;3.688;2022-12-08T08:12:52;5.35;;;2.42;;
23737;SDS011;12049;51.068;3.688;2022-12-08T08:15:18;6.40;;;2.80;;
23737;SDS011;12049;51.068;3.688;2022-12-08T08:17:47;6.70;;;2.70;;
23737;SDS011;12049;51.068;3.688;2022-12-08T08:20:14;6.38;;;3.10;;
23737;SDS011;12049;51.068;3.688;2022-12-08T08:22:39;6.18;;;3.25;;
23737;SDS011;12049;51.068;3.688;2022-12-08T08:25:05;7.05;;;3.60;;
23737;SDS011;12049;51.068;3.688;2022-12-08T08:27:31;7.38;;;4.00;;
23737;SDS011;12049;51.068;3.688;2022-12-08T08:29:57;8.18;;;3.85;;
23737;SDS011;12049;51.068;3.688;2022-12-08T08:32:22;8.52;;;3.97;;
23737;SDS011;12049;51.068;3.688;2022-12-08T08:34:48;8.13;;;3.95;;
23737;SDS011;12049;51.068;3.688;2022-12-08T08:37:14;7.63;;;4.15;;
23737;SDS011;12049;51.068;3.688;2022-12-08T08:39:40;8.52;;;4.22;;
23737;SDS011;12049;51.068;3.688;2022-12-08T08:42:07;10.15;;;4.18;;
23737;SDS011;12049;51.068;3.688;2022-12-08T08:44:32;10.50;;;5.45;;
23737;SDS011;12049;51.068;3.688;2022-12-08T08:46:58;10.10;;;5.50;;
23737;SDS011;12049;51.068;3.688;2022-12-08T08:49:23;12.50;;;6.10;;
23737;SDS011;12049;51.068;3.688;2022-12-08T08:51:49;13.40;;;6.72;;
23737;SDS011;12049;51.068;3.688;2022-12-08T08:54:15;12.32;;;7.13;;
23737;SDS011;12049;51.068;3.688;2022-12-08T08:56:41;12.55;;;7.85;;
23737;SDS011;12049;51.068;3.688;2022-12-08T08:59:06;12.35;;;7.18;;
23737;SDS011;12049;51.068;3.688;2022-12-08T09:01:33;12.18;;;8.07;;
23737;SDS011;12049;51.068;3.688;2022-12-08T09:03:58;14.45;;;8.00;;
23737;SDS011;12049;51.068;3.688;2022-12-08T09:06:25;15.35;;;8.73;;
23737;SDS011;12049;51.068;3.688;2022-12-08T09:08:54;15.60;;;9.18;;
23737;SDS011;12049;51.068;3.688;2022-12-08T09:11:19;19.95;;;9.88;;
23737;SDS011;12049;51.068;3.688;2022-12-08T09:13:47;16.95;;;9.80;;
23737;SDS011;12049;51.068;3.688;2022-12-08T09:16:13;16.77;;;9.93;;
23737;SDS011;12049;51.068;3.688;2022-12-08T09:18:39;18.40;;;9.82;;
23737;SDS011;12049;51.068;3.688;2022-12-08T09:21:06;18.33;;;10.40;;
23737;SDS011;12049;51.068;3.688;2022-12-08T09:23:34;15.43;;;9.48;;
23737;SDS011;12049;51.068;3.688;2022-12-08T09:26:00;19.60;;;10.10;;
23737;SDS011;12049;51.068;3.688;2022-12-08T09:28:26;21.13;;;10.65;;
23737;SDS011;12049;51.068;3.688;2022-12-08T09:30:52;15.52;;;10.15;;
23737;SDS011;12049;51.068;3.688;2022-12-08T09:33:21;19.75;;;10.27;;
23737;SDS011;12049;51.068;3.688;2022-12-08T09:35:46;22.55;;;10.75;;
23737;SDS011;12049;51.068;3.688;2022-12-08T09:38:12;17.90;;;9.75;;
23737;SDS011;12049;51.068;3.688;2022-12-08T09:40:48;17.63;;;10.25;;
23737;SDS011;12049;51.068;3.688;2022-12-08T09:46:02;21.00;;;11.45;;
23737;SDS011;12049;51.068;3.688;2022-12-08T09:48:32;14.68;;;9.45;;
23737;SDS011;12049;51.068;3.688;2022-12-08T09:51:01;14.70;;;9.32;;
23737;SDS011;12049;51.068;3.688;2022-12-08T09:53:31;15.85;;;8.90;;
23737;SDS011;12049;51.068;3.688;2022-12-08T09:59:20;18.65;;;9.50;;
23737;SDS011;12049;51.068;3.688;2022-12-08T10:01:26;15.55;;;9.30;;
23737;SDS011;12049;51.068;3.688;2022-12-08T10:03:54;16.63;;;9.20;;
23737;SDS011;12049;51.068;3.688;2022-12-08T10:19:44;16.38;;;9.85;;
23737;SDS011;12049;51.068;3.688;2022-12-08T10:22:13;16.70;;;9.52;;
23737;SDS011;12049;51.068;3.688;2022-12-08T10:27:36;19.35;;;9.63;;
23737;SDS011;12049;51.068;3.688;2022-12-08T10:30:08;16.25;;;9.43;;
23737;SDS011;12049;51.068;3.688;2022-12-08T10:32:37;17.00;;;9.45;;
23737;SDS011;12049;51.068;3.688;2022-12-08T10:35:07;15.50;;;9.20;;
23737;SDS011;12049;51.068;3.688;2022-12-08T10:37:38;17.52;;;9.80;;
23737;SDS011;12049;51.068;3.688;2022-12-08T10:42:55;13.75;;;9.10;;
23737;SDS011;12049;51.068;3.688;2022-12-08T10:45:35;15.82;;;8.82;;
23737;SDS011;12049;51.068;3.688;2022-12-08T10:48:26;19.20;;;8.52;;
23737;SDS011;12049;51.068;3.688;2022-12-08T10:50:55;12.73;;;8.10;;
23737;SDS011;12049;51.068;3.688;2022-12-08T10:53:31;13.95;;;7.18;;
23737;SDS011;12049;51.068;3.688;2022-12-08T10:58:36;11.35;;;6.10;;
23737;SDS011;12049;51.068;3.688;2022-12-08T11:06:50;7.25;;;3.67;;
23737;SDS011;12049;51.068;3.688;2022-12-08T11:14:22;7.05;;;3.60;;
23737;SDS011;12049;51.068;3.688;2022-12-08T11:16:49;11.55;;;3.78;;
23737;SDS011;12049;51.068;3.688;2022-12-08T11:19:18;5.40;;;3.78;;
23737;SDS011;12049;51.068;3.688;2022-12-08T11:21:44;7.90;;;4.00;;
23737;SDS011;12049;51.068;3.688;2022-12-08T11:24:32;8.02;;;4.00;;
23737;SDS011;12049;51.068;3.688;2022-12-08T11:27:02;8.13;;;4.00;;
23737;SDS011;12049;51.068;3.688;2022-12-08T11:29:32;8.55;;;3.97;;
23737;SDS011;12049;51.068;3.688;2022-12-08T11:32:03;9.27;;;4.03;;
23737;SDS011;12049;51.068;3.688;2022-12-08T11:37:27;7.85;;;3.75;;
23737;SDS011;12049;51.068;3.688;2022-12-08T11:39:57;6.93;;;3.63;;
23737;SDS011;12049;51.068;3.688;2022-12-08T11:42:29;6.45;;;3.60;;
23737;SDS011;12049;51.068;3.688;2022-12-08T11:44:59;6.80;;;3.55;;
23737;SDS011;12049;51.068;3.688;2022-12-08T11:47:36;6.72;;;3.58;;
23737;SDS011;12049;51.068;3.688;2022-12-08T11:50:18;7.68;;;3.28;;
23737;SDS011;12049;51.068;3.688;2022-12-08T11:53:06;7.72;;;3.80;;
23737;SDS011;12049;51.068;3.688;2022-12-08T11:55:56;8.77;;;3.70;;
23737;SDS011;12049;51.068;3.688;2022-12-08T11:58:33;6.38;;;3.60;;
23737;SDS011;12049;51.068;3.688;2022-12-08T12:01:09;7.93;;;3.42;;
23737;SDS011;12049;51.068;3.688;2022-12-08T12:03:46;5.60;;;3.78;;
23737;SDS011;12049;51.068;3.688;2022-12-08T12:06:36;6.22;;;3.45;;
23737;SDS011;12049;51.068;3.688;2022-12-08T12:15:11;10.10;;;4.22;;
23737;SDS011;12049;51.068;3.688;2022-12-08T12:17:48;7.95;;;4.00;;
23737;SDS011;12049;51.068;3.688;2022-12-08T12:20:29;7.53;;;3.50;;
23737;SDS011;12049;51.068;3.688;2022-12-08T12:23:03;12.75;;;3.88;;
23737;SDS011;12049;51.068;3.688;2022-12-08T12:25:31;8.50;;;4.10;;
23737;SDS011;12049;51.068;3.688;2022-12-08T12:28:00;10.18;;;3.95;;
23737;SDS011;12049;51.068;3.688;2022-12-08T12:30:32;7.13;;;3.70;;
23737;SDS011;12049;51.068;3.688;2022-12-08T12:33:32;10.10;;;4.40;;
23737;SDS011;12049;51.068;3.688;2022-12-08T12:36:04;10.52;;;4.13;;
23737;SDS011;12049;51.068;3.688;2022-12-08T12:41:25;9.52;;;3.90;;
23737;SDS011;12049;51.068;3.688;2022-12-08T12:46:37;5.50;;;2.50;;
23737;SDS011;12049;51.068;3.688;2022-12-08T12:54:41;3.63;;;2.53;;
23737;SDS011;12049;51.068;3.688;2022-12-08T13:04:44;3.03;;;1.92;;
23737;SDS011;12049;51.068;3.688;2022-12-08T13:07:25;3.95;;;2.10;;
23737;SDS011;12049;51.068;3.688;2022-12-08T13:15:33;3.60;;;2.08;;
23737;SDS011;12049;51.068;3.688;2022-12-08T13:18:04;1.77;;;1.25;;
23737;SDS011;12049;51.068;3.688;2022-12-08T13:20:38;2.55;;;1.50;;
23737;SDS011;12049;51.068;3.688;2022-12-08T13:39:28;2.95;;;1.50;;
23737;SDS011;12049;51.068;3.688;2022-12-08T13:42:04;2.20;;;0.90;;
23737;SDS011;12049;51.068;3.688;2022-12-08T13:47:21;2.88;;;0.90;;
23737;SDS011;12049;51.068;3.688;2022-12-08T13:55:19;3.13;;;0.70;;
23737;SDS011;12049;51.068;3.688;2022-12-08T13:57:50;1.60;;;0.80;;
23737;SDS011;12049;51.068;3.688;2022-12-08T14:00:19;0.82;;;0.70;;
23737;SDS011;12049;51.068;3.688;2022-12-08T14:02:50;2.95;;;0.90;;
23737;SDS011;12049;51.068;3.688;2022-12-08T14:05:20;2.05;;;0.90;;
23737;SDS011;12049;51.068;3.688;2022-12-08T14:07:48;0.90;;;0.80;;
23737;SDS011;12049;51.068;3.688;2022-12-08T14:10:21;3.50;;;1.77;;
23737;SDS011;12049;51.068;3.688;2022-12-08T14:12:56;2.33;;;1.00;;
23737;SDS011;12049;51.068;3.688;2022-12-08T14:15:25;3.58;;;1.10;;
23737;SDS011;12049;51.068;3.688;2022-12-08T14:17:52;2.78;;;1.30;;
23737;SDS011;12049;51.068;3.688;2022-12-08T14:20:22;2.20;;;1.20;;
23737;SDS011;12049;51.068;3.688;2022-12-08T14:22:48;3.97;;;1.40;;
23737;SDS011;12049;51.068;3.688;2022-12-08T14:25:15;2.90;;;1.55;;
23737;SDS011;12049;51.068;3.688;2022-12-08T14:27:42;4.30;;;1.90;;
23737;SDS011;12049;51.068;3.688;2022-12-08T14:35:24;3.05;;;2.03;;
23737;SDS011;12049;51.068;3.688;2022-12-08T14:37:54;2.63;;;1.73;;
23737;SDS011;12049;51.068;3.688;2022-12-08T14:45:32;3.20;;;1.75;;
23737;SDS011;12049;51.068;3.688;2022-12-08T14:51:06;3.30;;;1.95;;
23737;SDS011;12049;51.068;3.688;2022-12-08T14:53:58;4.35;;;1.90;;
23737;SDS011;12049;51.068;3.688;2022-12-08T14:56:39;4.15;;;1.95;;
23737;SDS011;12049;51.068;3.688;2022-12-08T14:59:16;3.67;;;2.00;;
23737;SDS011;12049;51.068;3.688;2022-12-08T15:01:45;3.05;;;2.10;;
23737;SDS011;12049;51.068;3.688;2022-12-08T15:06:46;5.95;;;2.15;;
23737;SDS011;12049;51.068;3.688;2022-12-08T15:09:16;2.95;;;2.00;;
23737;SDS011;12049;51.068;3.688;2022-12-08T15:11:58;3.75;;;2.38;;
23737;SDS011;12049;51.068;3.688;2022-12-08T15:14:34;3.53;;;2.10;;
23737;SDS011;12049;51.068;3.688;2022-12-08T15:17:02;4.28;;;2.67;;
23737;SDS011;12049;51.068;3.688;2022-12-08T15:19:54;3.60;;;2.55;;
23737;SDS011;12049;51.068;3.688;2022-12-08T15:22:20;3.42;;;2.60;;
23737;SDS011;12049;51.068;3.688;2022-12-08T15:24:46;6.55;;;3.40;;
23737;SDS011;12049;51.068;3.688;2022-12-08T15:27:16;5.38;;;2.50;;
23737;SDS011;12049;51.068;3.688;2022-12-08T15:32:11;4.97;;;2.60;;
23737;SDS011;12049;51.068;3.688;2022-12-08T15:34:40;4.28;;;2.70;;
23737;SDS011;12049;51.068;3.688;2022-12-08T15:37:08;3.90;;;2.88;;
23737;SDS011;12049;51.068;3.688;2022-12-08T15:39:56;5.53;;;2.90;;
23737;SDS011;12049;51.068;3.688;2022-12-08T15:42:21;5.22;;;2.80;;
23737;SDS011;12049;51.068;3.688;2022-12-08T15:44:47;4.32;;;3.25;;
23737;SDS011;12049;51.068;3.688;2022-12-08T15:47:14;5.18;;;2.80;;
23737;SDS011;12049;51.068;3.688;2022-12-08T15:49:44;5.85;;;3.28;;
23737;SDS011;12049;51.068;3.688;2022-12-08T15:52:14;4.57;;;3.03;;
23737;SDS011;12049;51.068;3.688;2022-12-08T15:54:42;7.05;;;3.28;;
23737;SDS011;12049;51.068;3.688;2022-12-08T15:57:41;5.20;;;3.30;;
23737;SDS011;12049;51.068;3.688;2022-12-08T15:59:59;7.70;;;3.53;;
23737;SDS011;12049;51.068;3.688;2022-12-08T16:02:25;6.72;;;4.10;;
23737;SDS011;12049;51.068;3.688;2022-12-08T16:04:50;6.88;;;4.43;;
23737;SDS011;12049;51.068;3.688;2022-12-08T16:07:24;6.53;;;4.53;;
23737;SDS011;12049;51.068;3.688;2022-12-08T16:09:51;7.40;;;4.32;;
23737;SDS011;12049;51.068;3.688;2022-12-08T16:12:21;8.70;;;5.20;;
23737;SDS011;12049;51.068;3.688;2022-12-08T16:15:07;9.55;;;5.60;;
23737;SDS011;12049;51.068;3.688;2022-12-08T16:17:34;9.60;;;5.28;;
23737;SDS011;12049;51.068;3.688;2022-12-08T16:20:01;7.70;;;5.63;;
23737;SDS011;12049;51.068;3.688;2022-12-08T16:22:29;7.57;;;5.03;;
23737;SDS011;12049;51.068;3.688;2022-12-08T16:24:56;7.97;;;5.45;;
23737;SDS011;12049;51.068;3.688;2022-12-08T16:27:23;7.53;;;6.10;;
23737;SDS011;12049;51.068;3.688;2022-12-08T16:29:53;8.60;;;6.45;;
23737;SDS011;12049;51.068;3.688;2022-12-08T16:32:21;8.07;;;6.60;;
23737;SDS011;12049;51.068;3.688;2022-12-08T16:34:47;10.13;;;7.38;;
23737;SDS011;12049;51.068;3.688;2022-12-08T16:37:17;11.00;;;7.32;;
23737;SDS011;12049;51.068;3.688;2022-12-08T16:39:44;8.27;;;7.10;;
23737;SDS011;12049;51.068;3.688;2022-12-08T16:42:11;9.90;;;7.05;;
23737;SDS011;12049;51.068;3.688;2022-12-08T16:45:03;12.70;;;7.30;;
23737;SDS011;12049;51.068;3.688;2022-12-08T16:47:36;10.18;;;7.63;;
23737;SDS011;12049;51.068;3.688;2022-12-08T16:50:19;11.43;;;8.25;;
23737;SDS011;12049;51.068;3.688;2022-12-08T16:52:54;11.65;;;8.55;;
23737;SDS011;12049;51.068;3.688;2022-12-08T16:55:32;12.23;;;9.02;;
23737;SDS011;12049;51.068;3.688;2022-12-08T16:57:58;12.45;;;8.85;;
23737;SDS011;12049;51.068;3.688;2022-12-08T17:00:25;11.75;;;9.32;;
23737;SDS011;12049;51.068;3.688;2022-12-08T17:02:52;13.48;;;10.15;;
23737;SDS011;12049;51.068;3.688;2022-12-08T17:05:19;11.90;;;10.45;;
23737;SDS011;12049;51.068;3.688;2022-12-08T17:07:47;16.48;;;10.57;;
23737;SDS011;12049;51.068;3.688;2022-12-08T17:10:15;13.70;;;10.57;;
23737;SDS011;12049;51.068;3.688;2022-12-08T17:12:42;12.20;;;9.90;;